sensor_id;sensor_type;location;lat;lon;timestamp;pressure;altitude;pressure_sealevel;temperature;humidity
76331;BME280;65148;51.912;15.570;2023-02-17T00:09:03;101924.23;;;7.61;70.73
76331;BME280;65148;51.912;15.570;2023-02-17T00:24:05;101907.39;;;7.47;71.81
76331;BME280;65148;51.912;15.570;2023-02-17T00:39:06;101915.88;;;7.39;72.02
76331;BME280;65148;51.912;15.570;2023-02-17T00:54:07;101916.01;;;7.09;73.87
76331;BME280;65148;51.912;15.570;2023-02-17T01:09:29;101889.05;;;6.91;75.77
76331;BME280;65148;51.912;15.570;2023-02-17T01:24:30;101865.75;;;7.02;76.48
76331;BME280;65148;51.912;15.570;2023-02-17T01:39:31;101845.61;;;7.09;76.98
76331;BME280;65148;51.912;15.570;2023-02-17T01:54:37;101831.02;;;7.10;77.10
76331;BME280;65148;51.912;15.570;2023-02-17T02:09:57;101804.54;;;6.89;78.94
76331;BME280;65148;51.912;15.570;2023-02-17T02:40:14;101779.80;;;7.09;81.30
76331;BME280;65148;51.912;15.570;2023-02-17T02:55:50;101752.05;;;7.02;80.47
76331;BME280;65148;51.912;15.570;2023-02-17T03:10:52;101729.79;;;7.00;81.28
76331;BME280;65148;51.912;15.570;2023-02-17T03:25:53;101735.90;;;6.95;81.96
76331;BME280;65148;51.912;15.570;2023-02-17T03:41:20;101701.10;;;6.87;82.61
76331;BME280;65148;51.912;15.570;2023-02-17T03:56:21;101699.66;;;6.96;82.09
76331;BME280;65148;51.912;15.570;2023-02-17T04:11:22;101684.86;;;6.87;82.43
76331;BME280;65148;51.912;15.570;2023-02-17T04:26:23;101666.98;;;6.74;84.14
76331;BME280;65148;51.912;15.570;2023-02-17T04:41:46;101661.51;;;6.57;87.41
76331;BME280;65148;51.912;15.570;2023-02-17T04:56:47;101614.98;;;6.72;87.36
76331;BME280;65148;51.912;15.570;2023-02-17T05:11:48;101620.96;;;6.86;87.17
76331;BME280;65148;51.912;15.570;2023-02-17T05:26:49;101624.69;;;6.96;87.65
76331;BME280;65148;51.912;15.570;2023-02-17T05:42:13;101617.30;;;6.92;89.16
76331;BME280;65148;51.912;15.570;2023-02-17T05:57:15;101614.92;;;6.95;91.76
76331;BME280;65148;51.912;15.570;2023-02-17T06:12:16;101587.96;;;7.01;96.30
76331;BME280;65148;51.912;15.570;2023-02-17T06:27:17;101579.41;;;6.92;100.00
76331;BME280;65148;51.912;15.570;2023-02-17T06:42:39;101576.31;;;7.00;100.00
76331;BME280;65148;51.912;15.570;2023-02-17T06:57:40;101569.27;;;7.16;100.00
76331;BME280;65148;51.912;15.570;2023-02-17T07:12:41;101578.80;;;7.18;100.00
76331;BME280;65148;51.912;15.570;2023-02-17T07:27:42;101580.87;;;7.28;100.00
76331;BME280;65148;51.912;15.570;2023-02-17T07:43:07;101564.80;;;7.38;100.00
76331;BME280;65148;51.912;15.570;2023-02-17T07:58:08;101552.17;;;7.44;100.00
76331;BME280;65148;51.912;15.570;2023-02-17T08:13:10;101531.64;;;7.64;100.00
76331;BME280;65148;51.912;15.570;2023-02-17T08:28:48;101537.12;;;7.69;100.00
76331;BME280;65148;51.912;15.570;2023-02-17T08:43:50;101524.64;;;7.68;100.00
76331;BME280;65148;51.912;15.570;2023-02-17T08:58:51;101521.16;;;7.90;100.00
76331;BME280;65148;51.912;15.570;2023-02-17T09:13:52;101501.80;;;7.81;100.00
76331;BME280;65148;51.912;15.570;2023-02-17T09:29:13;101504.63;;;8.08;100.00
76331;BME280;65148;51.912;15.570;2023-02-17T09:44:24;101471.13;;;8.19;100.00
76331;BME280;65148;51.912;15.570;2023-02-17T09:59:30;101459.34;;;8.30;100.00
76331;BME280;65148;51.912;15.570;2023-02-17T10:15:05;101439.21;;;8.48;100.00
76331;BME280;65148;51.912;15.570;2023-02-17T10:45:52;101369.33;;;9.34;100.00
76331;BME280;65148;51.912;15.570;2023-02-17T11:00:54;101332.23;;;9.60;100.00
76331;BME280;65148;51.912;15.570;2023-02-17T11:15:57;101287.66;;;9.61;100.00
76331;BME280;65148;51.912;15.570;2023-02-17T11:30:59;101264.77;;;9.52;100.00
76331;BME280;65148;51.912;15.570;2023-02-17T11:46:24;101244.66;;;9.53;100.00
76331;BME280;65148;51.912;15.570;2023-02-17T12:16:52;101172.66;;;9.50;100.00
76331;BME280;65148;51.912;15.570;2023-02-17T12:47:33;101098.48;;;9.70;100.00
76331;BME280;65148;51.912;15.570;2023-02-17T13:02:35;101047.64;;;9.40;100.00
76331;BME280;65148;51.912;15.570;2023-02-17T13:33:27;101002.98;;;9.97;100.00
76331;BME280;65148;51.912;15.570;2023-02-17T14:03:53;100937.60;;;10.33;100.00
76331;BME280;65148;51.912;15.570;2023-02-17T14:19:06;100907.34;;;10.39;100.00
76331;BME280;65148;51.912;15.570;2023-02-17T14:34:34;100888.75;;;10.56;100.00
76331;BME280;65148;51.912;15.570;2023-02-17T14:49:35;100874.28;;;10.95;100.00
76331;BME280;65148;51.912;15.570;2023-02-17T15:04:36;100881.18;;;11.16;100.00
76331;BME280;65148;51.912;15.570;2023-02-17T15:19:38;100849.08;;;11.37;100.00
76331;BME280;65148;51.912;15.570;2023-02-17T15:34:56;100858.20;;;11.51;100.00
76331;BME280;65148;51.912;15.570;2023-02-17T15:49:58;100863.25;;;11.63;100.00
76331;BME280;65148;51.912;15.570;2023-02-17T16:04:59;100850.18;;;11.36;100.00
76331;BME280;65148;51.912;15.570;2023-02-17T16:20:00;100842.83;;;11.60;100.00
76331;BME280;65148;51.912;15.570;2023-02-17T16:35:22;100857.52;;;11.64;100.00
76331;BME280;65148;51.912;15.570;2023-02-17T16:50:29;100846.67;;;11.83;100.00
76331;BME280;65148;51.912;15.570;2023-02-17T17:05:30;100825.29;;;11.90;100.00
76331;BME280;65148;51.912;15.570;2023-02-17T17:21:00;100875.03;;;12.06;100.00
76331;BME280;65148;51.912;15.570;2023-02-17T17:36:01;100878.21;;;12.69;99.77
76331;BME280;65148;51.912;15.570;2023-02-17T17:51:02;100846.86;;;12.48;100.00
76331;BME280;65148;51.912;15.570;2023-02-17T18:06:04;100885.89;;;12.67;100.00
76331;BME280;65148;51.912;15.570;2023-02-17T18:21:24;100917.79;;;12.72;99.97
76331;BME280;65148;51.912;15.570;2023-02-17T18:36:26;100907.91;;;12.76;98.18
76331;BME280;65148;51.912;15.570;2023-02-17T18:51:29;100916.08;;;12.57;97.71
76331;BME280;65148;51.912;15.570;2023-02-17T19:06:32;100924.51;;;12.61;94.63
76331;BME280;65148;51.912;15.570;2023-02-17T19:21:48;100944.92;;;12.44;93.57
76331;BME280;65148;51.912;15.570;2023-02-17T19:36:49;100944.25;;;12.34;93.16
76331;BME280;65148;51.912;15.570;2023-02-17T19:51:50;100970.45;;;12.35;91.02
76331;BME280;65148;51.912;15.570;2023-02-17T20:06:56;100989.84;;;12.33;90.04
76331;BME280;65148;51.912;15.570;2023-02-17T20:22:12;100989.63;;;12.30;88.48
76331;BME280;65148;51.912;15.570;2023-02-17T20:37:13;101008.17;;;12.33;89.94
76331;BME280;65148;51.912;15.570;2023-02-17T20:52:14;101035.58;;;11.31;99.54
76331;BME280;65148;51.912;15.570;2023-02-17T21:07:16;101051.72;;;11.22;100.00
76331;BME280;65148;51.912;15.570;2023-02-17T21:22:36;101076.98;;;10.89;100.00
76331;BME280;65148;51.912;15.570;2023-02-17T21:37:37;101085.45;;;10.82;90.04
76331;BME280;65148;51.912;15.570;2023-02-17T21:52:39;101109.73;;;10.74;66.39
76331;BME280;65148;51.912;15.570;2023-02-17T22:07:40;101112.25;;;10.55;53.62
76331;BME280;65148;51.912;15.570;2023-02-17T22:23:00;101134.92;;;10.25;70.26
76331;BME280;65148;51.912;15.570;2023-02-17T22:38:01;101150.40;;;9.89;60.21
76331;BME280;65148;51.912;15.570;2023-02-17T22:53:02;101169.13;;;9.55;59.42
76331;BME280;65148;51.912;15.570;2023-02-17T23:08:03;101199.71;;;9.20;58.45
76331;BME280;65148;51.912;15.570;2023-02-17T23:23:20;101224.07;;;9.00;59.11
76331;BME280;65148;51.912;15.570;2023-02-17T23:38:21;101239.70;;;8.77;59.66
76331;BME280;65148;51.912;15.570;2023-02-17T23:53:22;101266.20;;;8.60;59.53
